sensor_id;sensor_type;location;lat;lon;timestamp;P1;durP1;ratioP1;P2;durP2;ratioP2
5157;SDS011;2598;52.364;9.772;2023-02-08T00:00:51;51.63;;;22.80;;
5157;SDS011;2598;52.364;9.772;2023-02-08T00:03:17;51.00;;;25.10;;
5157;SDS011;2598;52.364;9.772;2023-02-08T00:05:43;51.47;;;22.10;;
5157;SDS011;2598;52.364;9.772;2023-02-08T00:08:09;56.78;;;24.77;;
5157;SDS011;2598;52.364;9.772;2023-02-08T00:10:35;55.53;;;24.70;;
5157;SDS011;2598;52.364;9.772;2023-02-08T00:13:01;57.83;;;23.87;;
5157;SDS011;2598;52.364;9.772;2023-02-08T00:15:27;59.67;;;24.70;;
5157;SDS011;2598;52.364;9.772;2023-02-08T00:17:53;47.70;;;24.03;;
5157;SDS011;2598;52.364;9.772;2023-02-08T00:20:19;52.93;;;22.60;;
5157;SDS011;2598;52.364;9.772;2023-02-08T00:22:45;55.72;;;24.92;;
5157;SDS011;2598;52.364;9.772;2023-02-08T00:25:11;55.58;;;24.50;;
5157;SDS011;2598;52.364;9.772;2023-02-08T00:27:37;52.27;;;25.63;;
5157;SDS011;2598;52.364;9.772;2023-02-08T00:30:03;49.42;;;23.42;;
5157;SDS011;2598;52.364;9.772;2023-02-08T00:32:29;53.88;;;24.48;;
5157;SDS011;2598;52.364;9.772;2023-02-08T00:34:55;55.70;;;24.40;;
5157;SDS011;2598;52.364;9.772;2023-02-08T00:37:21;53.33;;;22.77;;
5157;SDS011;2598;52.364;9.772;2023-02-08T00:39:47;58.77;;;23.87;;
5157;SDS011;2598;52.364;9.772;2023-02-08T00:42:13;54.20;;;24.73;;
5157;SDS011;2598;52.364;9.772;2023-02-08T00:44:39;49.93;;;22.63;;
5157;SDS011;2598;52.364;9.772;2023-02-08T00:47:05;45.17;;;22.13;;
5157;SDS011;2598;52.364;9.772;2023-02-08T00:49:31;49.40;;;21.50;;
5157;SDS011;2598;52.364;9.772;2023-02-08T00:51:57;58.67;;;26.20;;
5157;SDS011;2598;52.364;9.772;2023-02-08T00:54:23;45.67;;;20.93;;
5157;SDS011;2598;52.364;9.772;2023-02-08T00:56:49;55.73;;;23.83;;
5157;SDS011;2598;52.364;9.772;2023-02-08T00:59:15;50.60;;;23.60;;
5157;SDS011;2598;52.364;9.772;2023-02-08T01:01:41;56.40;;;24.90;;
5157;SDS011;2598;52.364;9.772;2023-02-08T01:04:07;53.25;;;23.80;;
5157;SDS011;2598;52.364;9.772;2023-02-08T01:06:33;52.70;;;23.95;;
5157;SDS011;2598;52.364;9.772;2023-02-08T01:08:59;45.58;;;22.50;;
5157;SDS011;2598;52.364;9.772;2023-02-08T01:11:25;59.67;;;24.90;;
5157;SDS011;2598;52.364;9.772;2023-02-08T01:13:52;55.10;;;23.30;;
5157;SDS011;2598;52.364;9.772;2023-02-08T01:16:21;48.15;;;22.35;;
5157;SDS011;2598;52.364;9.772;2023-02-08T01:18:47;51.10;;;23.83;;
5157;SDS011;2598;52.364;9.772;2023-02-08T01:21:19;45.67;;;22.42;;
5157;SDS011;2598;52.364;9.772;2023-02-08T01:23:45;46.85;;;21.95;;
5157;SDS011;2598;52.364;9.772;2023-02-08T01:26:12;51.72;;;23.42;;
5157;SDS011;2598;52.364;9.772;2023-02-08T01:28:38;52.58;;;23.67;;
5157;SDS011;2598;52.364;9.772;2023-02-08T01:31:08;52.90;;;21.45;;
5157;SDS011;2598;52.364;9.772;2023-02-08T01:33:35;50.45;;;23.30;;
5157;SDS011;2598;52.364;9.772;2023-02-08T01:36:01;52.90;;;23.80;;
5157;SDS011;2598;52.364;9.772;2023-02-08T01:38:27;46.80;;;22.67;;
5157;SDS011;2598;52.364;9.772;2023-02-08T01:40:53;61.45;;;22.38;;
5157;SDS011;2598;52.364;9.772;2023-02-08T01:43:20;48.10;;;22.77;;
5157;SDS011;2598;52.364;9.772;2023-02-08T01:45:47;54.78;;;22.00;;
5157;SDS011;2598;52.364;9.772;2023-02-08T01:48:14;47.00;;;23.60;;
5157;SDS011;2598;52.364;9.772;2023-02-08T01:51:28;55.92;;;23.88;;
5157;SDS011;2598;52.364;9.772;2023-02-08T01:53:29;44.22;;;22.20;;
5157;SDS011;2598;52.364;9.772;2023-02-08T01:55:57;51.50;;;22.17;;
5157;SDS011;2598;52.364;9.772;2023-02-08T01:58:24;48.15;;;21.73;;
5157;SDS011;2598;52.364;9.772;2023-02-08T02:00:51;52.50;;;23.25;;
5157;SDS011;2598;52.364;9.772;2023-02-08T02:03:18;47.58;;;22.45;;
5157;SDS011;2598;52.364;9.772;2023-02-08T02:05:46;50.88;;;22.30;;
5157;SDS011;2598;52.364;9.772;2023-02-08T02:08:13;54.83;;;22.58;;
5157;SDS011;2598;52.364;9.772;2023-02-08T02:10:40;46.90;;;23.00;;
5157;SDS011;2598;52.364;9.772;2023-02-08T02:13:07;57.58;;;23.85;;
5157;SDS011;2598;52.364;9.772;2023-02-08T02:15:34;55.75;;;24.17;;
5157;SDS011;2598;52.364;9.772;2023-02-08T02:18:01;54.47;;;23.02;;
5157;SDS011;2598;52.364;9.772;2023-02-08T02:20:32;50.72;;;22.77;;
5157;SDS011;2598;52.364;9.772;2023-02-08T02:28:30;50.35;;;21.15;;
5157;SDS011;2598;52.364;9.772;2023-02-08T02:31:09;44.28;;;20.33;;
5157;SDS011;2598;52.364;9.772;2023-02-08T02:37:00;50.35;;;21.48;;
5157;SDS011;2598;52.364;9.772;2023-02-08T02:39:01;43.63;;;21.90;;
5157;SDS011;2598;52.364;9.772;2023-02-08T02:41:52;47.70;;;21.05;;
5157;SDS011;2598;52.364;9.772;2023-02-08T02:47:08;43.97;;;21.00;;
5157;SDS011;2598;52.364;9.772;2023-02-08T02:49:38;49.80;;;21.88;;
5157;SDS011;2598;52.364;9.772;2023-02-08T02:52:10;49.00;;;22.45;;
5157;SDS011;2598;52.364;9.772;2023-02-08T02:54:41;49.85;;;21.27;;
5157;SDS011;2598;52.364;9.772;2023-02-08T02:57:10;41.00;;;19.92;;
5157;SDS011;2598;52.364;9.772;2023-02-08T02:59:38;47.50;;;20.75;;
5157;SDS011;2598;52.364;9.772;2023-02-08T03:02:04;47.20;;;20.30;;
5157;SDS011;2598;52.364;9.772;2023-02-08T03:07:04;52.13;;;22.63;;
5157;SDS011;2598;52.364;9.772;2023-02-08T03:09:43;48.38;;;22.83;;
5157;SDS011;2598;52.364;9.772;2023-02-08T03:14:46;39.13;;;20.20;;
5157;SDS011;2598;52.364;9.772;2023-02-08T03:17:21;47.28;;;20.23;;
5157;SDS011;2598;52.364;9.772;2023-02-08T03:22:19;47.80;;;20.20;;
5157;SDS011;2598;52.364;9.772;2023-02-08T03:25:00;40.53;;;21.73;;
5157;SDS011;2598;52.364;9.772;2023-02-08T03:27:30;43.40;;;19.58;;
5157;SDS011;2598;52.364;9.772;2023-02-08T03:29:59;50.67;;;21.25;;
5157;SDS011;2598;52.364;9.772;2023-02-08T03:32:32;40.85;;;18.85;;
5157;SDS011;2598;52.364;9.772;2023-02-08T03:35:04;43.17;;;19.30;;
5157;SDS011;2598;52.364;9.772;2023-02-08T03:37:44;45.50;;;20.40;;
5157;SDS011;2598;52.364;9.772;2023-02-08T03:40:13;37.70;;;17.92;;
5157;SDS011;2598;52.364;9.772;2023-02-08T03:42:41;46.20;;;20.85;;
5157;SDS011;2598;52.364;9.772;2023-02-08T03:45:10;42.30;;;18.85;;
5157;SDS011;2598;52.364;9.772;2023-02-08T03:47:38;51.17;;;18.65;;
5157;SDS011;2598;52.364;9.772;2023-02-08T03:50:06;40.20;;;17.75;;
5157;SDS011;2598;52.364;9.772;2023-02-08T03:52:33;42.13;;;19.10;;
5157;SDS011;2598;52.364;9.772;2023-02-08T03:55:00;38.00;;;18.70;;
5157;SDS011;2598;52.364;9.772;2023-02-08T03:57:34;53.08;;;19.00;;
5157;SDS011;2598;52.364;9.772;2023-02-08T04:00:03;42.08;;;19.23;;
5157;SDS011;2598;52.364;9.772;2023-02-08T04:02:31;43.83;;;17.55;;
5157;SDS011;2598;52.364;9.772;2023-02-08T04:04:58;43.85;;;19.83;;
5157;SDS011;2598;52.364;9.772;2023-02-08T04:07:25;43.17;;;18.65;;
5157;SDS011;2598;52.364;9.772;2023-02-08T04:09:51;42.47;;;19.30;;
5157;SDS011;2598;52.364;9.772;2023-02-08T04:12:17;37.80;;;17.75;;
5157;SDS011;2598;52.364;9.772;2023-02-08T04:14:43;42.08;;;18.08;;
5157;SDS011;2598;52.364;9.772;2023-02-08T04:17:09;39.30;;;18.08;;
5157;SDS011;2598;52.364;9.772;2023-02-08T04:19:35;39.53;;;18.07;;
5157;SDS011;2598;52.364;9.772;2023-02-08T04:22:01;42.43;;;18.90;;
5157;SDS011;2598;52.364;9.772;2023-02-08T04:24:27;43.23;;;17.23;;
5157;SDS011;2598;52.364;9.772;2023-02-08T04:26:53;36.33;;;17.60;;
5157;SDS011;2598;52.364;9.772;2023-02-08T04:29:19;46.13;;;18.07;;
5157;SDS011;2598;52.364;9.772;2023-02-08T04:31:45;35.60;;;17.30;;
5157;SDS011;2598;52.364;9.772;2023-02-08T04:34:11;40.50;;;18.20;;
5157;SDS011;2598;52.364;9.772;2023-02-08T04:36:37;41.63;;;18.27;;
5157;SDS011;2598;52.364;9.772;2023-02-08T04:39:03;42.28;;;17.83;;
5157;SDS011;2598;52.364;9.772;2023-02-08T04:41:29;39.57;;;17.10;;
5157;SDS011;2598;52.364;9.772;2023-02-08T04:43:55;41.50;;;18.23;;
5157;SDS011;2598;52.364;9.772;2023-02-08T04:46:21;38.53;;;18.13;;
5157;SDS011;2598;52.364;9.772;2023-02-08T04:48:47;42.07;;;19.00;;
5157;SDS011;2598;52.364;9.772;2023-02-08T04:51:13;44.70;;;17.57;;
5157;SDS011;2598;52.364;9.772;2023-02-08T04:53:39;41.67;;;18.03;;
5157;SDS011;2598;52.364;9.772;2023-02-08T04:56:05;40.70;;;18.60;;
5157;SDS011;2598;52.364;9.772;2023-02-08T04:58:31;37.15;;;16.50;;
5157;SDS011;2598;52.364;9.772;2023-02-08T05:00:57;46.90;;;18.30;;
5157;SDS011;2598;52.364;9.772;2023-02-08T05:03:23;44.00;;;18.97;;
5157;SDS011;2598;52.364;9.772;2023-02-08T05:05:55;43.00;;;18.03;;
5157;SDS011;2598;52.364;9.772;2023-02-08T05:08:21;39.53;;;18.17;;
5157;SDS011;2598;52.364;9.772;2023-02-08T05:10:47;36.40;;;15.50;;
5157;SDS011;2598;52.364;9.772;2023-02-08T05:13:13;37.77;;;16.90;;
5157;SDS011;2598;52.364;9.772;2023-02-08T05:15:39;38.57;;;16.77;;
5157;SDS011;2598;52.364;9.772;2023-02-08T05:18:05;41.07;;;17.03;;
5157;SDS011;2598;52.364;9.772;2023-02-08T05:20:31;35.73;;;16.67;;
5157;SDS011;2598;52.364;9.772;2023-02-08T05:22:57;40.40;;;16.77;;
5157;SDS011;2598;52.364;9.772;2023-02-08T05:25:23;36.50;;;15.90;;
5157;SDS011;2598;52.364;9.772;2023-02-08T05:27:49;45.40;;;17.80;;
5157;SDS011;2598;52.364;9.772;2023-02-08T05:30:15;40.17;;;17.70;;
5157;SDS011;2598;52.364;9.772;2023-02-08T05:32:41;38.13;;;15.98;;
5157;SDS011;2598;52.364;9.772;2023-02-08T05:35:07;42.45;;;18.80;;
5157;SDS011;2598;52.364;9.772;2023-02-08T05:37:36;38.90;;;17.10;;
5157;SDS011;2598;52.364;9.772;2023-02-08T05:40:02;33.13;;;16.33;;
5157;SDS011;2598;52.364;9.772;2023-02-08T05:42:28;43.85;;;18.05;;
5157;SDS011;2598;52.364;9.772;2023-02-08T05:44:54;40.10;;;16.03;;
5157;SDS011;2598;52.364;9.772;2023-02-08T05:47:20;38.72;;;17.95;;
5157;SDS011;2598;52.364;9.772;2023-02-08T05:49:46;38.53;;;17.42;;
5157;SDS011;2598;52.364;9.772;2023-02-08T05:52:12;38.67;;;16.90;;
5157;SDS011;2598;52.364;9.772;2023-02-08T05:54:38;41.13;;;16.77;;
5157;SDS011;2598;52.364;9.772;2023-02-08T05:57:04;36.23;;;17.23;;
5157;SDS011;2598;52.364;9.772;2023-02-08T05:59:30;43.80;;;18.87;;
5157;SDS011;2598;52.364;9.772;2023-02-08T06:01:56;41.27;;;15.80;;
5157;SDS011;2598;52.364;9.772;2023-02-08T06:04:22;40.10;;;17.00;;
5157;SDS011;2598;52.364;9.772;2023-02-08T06:06:48;39.20;;;17.67;;
5157;SDS011;2598;52.364;9.772;2023-02-08T06:09:14;38.03;;;16.50;;
5157;SDS011;2598;52.364;9.772;2023-02-08T06:11:40;40.00;;;17.83;;
5157;SDS011;2598;52.364;9.772;2023-02-08T06:14:06;42.90;;;18.23;;
5157;SDS011;2598;52.364;9.772;2023-02-08T06:16:33;42.40;;;18.48;;
5157;SDS011;2598;52.364;9.772;2023-02-08T06:18:59;41.90;;;18.13;;
5157;SDS011;2598;52.364;9.772;2023-02-08T06:21:25;44.75;;;18.13;;
5157;SDS011;2598;52.364;9.772;2023-02-08T06:23:52;42.17;;;18.73;;
5157;SDS011;2598;52.364;9.772;2023-02-08T06:26:18;48.13;;;17.70;;
5157;SDS011;2598;52.364;9.772;2023-02-08T06:28:44;37.78;;;17.90;;
5157;SDS011;2598;52.364;9.772;2023-02-08T06:31:10;45.60;;;17.07;;
5157;SDS011;2598;52.364;9.772;2023-02-08T06:33:35;40.37;;;18.27;;
5157;SDS011;2598;52.364;9.772;2023-02-08T06:36:01;45.93;;;18.80;;
5157;SDS011;2598;52.364;9.772;2023-02-08T06:38:27;42.25;;;18.20;;
5157;SDS011;2598;52.364;9.772;2023-02-08T06:40:53;37.50;;;18.20;;
5157;SDS011;2598;52.364;9.772;2023-02-08T06:43:19;42.40;;;18.90;;
5157;SDS011;2598;52.364;9.772;2023-02-08T06:45:45;45.43;;;18.97;;
5157;SDS011;2598;52.364;9.772;2023-02-08T06:48:12;50.58;;;20.67;;
5157;SDS011;2598;52.364;9.772;2023-02-08T06:50:38;45.95;;;19.73;;
5157;SDS011;2598;52.364;9.772;2023-02-08T06:53:04;49.78;;;20.88;;
5157;SDS011;2598;52.364;9.772;2023-02-08T06:55:30;53.20;;;20.87;;
5157;SDS011;2598;52.364;9.772;2023-02-08T06:57:56;48.50;;;20.13;;
5157;SDS011;2598;52.364;9.772;2023-02-08T07:00:22;39.23;;;19.60;;
5157;SDS011;2598;52.364;9.772;2023-02-08T07:02:48;51.05;;;19.55;;
5157;SDS011;2598;52.364;9.772;2023-02-08T07:05:15;44.75;;;18.90;;
5157;SDS011;2598;52.364;9.772;2023-02-08T07:07:41;51.88;;;21.40;;
5157;SDS011;2598;52.364;9.772;2023-02-08T07:10:07;49.35;;;20.25;;
5157;SDS011;2598;52.364;9.772;2023-02-08T07:12:34;52.03;;;19.83;;
5157;SDS011;2598;52.364;9.772;2023-02-08T07:15:00;48.25;;;22.23;;
5157;SDS011;2598;52.364;9.772;2023-02-08T07:17:26;48.00;;;20.37;;
5157;SDS011;2598;52.364;9.772;2023-02-08T07:19:52;46.43;;;20.57;;
5157;SDS011;2598;52.364;9.772;2023-02-08T07:22:18;50.10;;;19.70;;
5157;SDS011;2598;52.364;9.772;2023-02-08T07:24:44;50.83;;;22.00;;
5157;SDS011;2598;52.364;9.772;2023-02-08T07:27:10;49.53;;;21.40;;
5157;SDS011;2598;52.364;9.772;2023-02-08T07:29:38;47.47;;;24.95;;
5157;SDS011;2598;52.364;9.772;2023-02-08T07:32:04;46.13;;;21.40;;
5157;SDS011;2598;52.364;9.772;2023-02-08T07:34:35;47.00;;;20.67;;
5157;SDS011;2598;52.364;9.772;2023-02-08T07:37:01;48.70;;;21.15;;
5157;SDS011;2598;52.364;9.772;2023-02-08T07:39:27;50.38;;;20.67;;
5157;SDS011;2598;52.364;9.772;2023-02-08T07:41:55;45.53;;;18.85;;
5157;SDS011;2598;52.364;9.772;2023-02-08T07:44:21;44.08;;;20.67;;
5157;SDS011;2598;52.364;9.772;2023-02-08T07:46:47;48.27;;;19.90;;
5157;SDS011;2598;52.364;9.772;2023-02-08T07:49:13;47.27;;;20.10;;
5157;SDS011;2598;52.364;9.772;2023-02-08T07:51:39;47.00;;;22.95;;
5157;SDS011;2598;52.364;9.772;2023-02-08T07:54:05;46.60;;;21.13;;
5157;SDS011;2598;52.364;9.772;2023-02-08T07:56:31;41.33;;;18.60;;
5157;SDS011;2598;52.364;9.772;2023-02-08T07:58:57;45.63;;;18.98;;
5157;SDS011;2598;52.364;9.772;2023-02-08T08:01:23;38.45;;;18.77;;
5157;SDS011;2598;52.364;9.772;2023-02-08T08:03:49;39.03;;;18.03;;
5157;SDS011;2598;52.364;9.772;2023-02-08T08:06:16;43.15;;;18.08;;
5157;SDS011;2598;52.364;9.772;2023-02-08T08:08:42;45.08;;;18.95;;
5157;SDS011;2598;52.364;9.772;2023-02-08T08:11:11;46.90;;;20.63;;
5157;SDS011;2598;52.364;9.772;2023-02-08T08:13:37;41.85;;;17.80;;
5157;SDS011;2598;52.364;9.772;2023-02-08T08:16:03;43.87;;;19.13;;
5157;SDS011;2598;52.364;9.772;2023-02-08T08:18:29;39.17;;;18.98;;
5157;SDS011;2598;52.364;9.772;2023-02-08T08:20:56;44.80;;;18.73;;
5157;SDS011;2598;52.364;9.772;2023-02-08T08:23:22;40.20;;;19.50;;
5157;SDS011;2598;52.364;9.772;2023-02-08T08:25:48;42.97;;;21.63;;
5157;SDS011;2598;52.364;9.772;2023-02-08T08:28:14;48.95;;;19.95;;
5157;SDS011;2598;52.364;9.772;2023-02-08T08:30:43;42.03;;;19.33;;
5157;SDS011;2598;52.364;9.772;2023-02-08T08:33:09;44.25;;;21.17;;
5157;SDS011;2598;52.364;9.772;2023-02-08T08:35:35;45.83;;;20.08;;
5157;SDS011;2598;52.364;9.772;2023-02-08T08:38:01;42.08;;;20.38;;
5157;SDS011;2598;52.364;9.772;2023-02-08T08:40:27;41.73;;;19.47;;
5157;SDS011;2598;52.364;9.772;2023-02-08T08:42:53;41.67;;;19.23;;
5157;SDS011;2598;52.364;9.772;2023-02-08T08:45:19;41.67;;;19.38;;
5157;SDS011;2598;52.364;9.772;2023-02-08T08:47:45;39.67;;;17.40;;
5157;SDS011;2598;52.364;9.772;2023-02-08T08:50:11;37.37;;;17.60;;
5157;SDS011;2598;52.364;9.772;2023-02-08T08:52:37;33.63;;;17.00;;
5157;SDS011;2598;52.364;9.772;2023-02-08T08:55:04;35.33;;;17.00;;
5157;SDS011;2598;52.364;9.772;2023-02-08T08:57:30;36.13;;;16.95;;
5157;SDS011;2598;52.364;9.772;2023-02-08T08:59:56;39.60;;;17.10;;
5157;SDS011;2598;52.364;9.772;2023-02-08T09:02:22;39.40;;;18.23;;
5157;SDS011;2598;52.364;9.772;2023-02-08T09:04:48;33.53;;;15.60;;
5157;SDS011;2598;52.364;9.772;2023-02-08T09:07:14;32.07;;;15.43;;
5157;SDS011;2598;52.364;9.772;2023-02-08T09:09:40;29.60;;;15.43;;
5157;SDS011;2598;52.364;9.772;2023-02-08T09:12:06;29.17;;;13.55;;
5157;SDS011;2598;52.364;9.772;2023-02-08T09:14:32;29.55;;;15.45;;
5157;SDS011;2598;52.364;9.772;2023-02-08T09:16:58;30.88;;;16.08;;
5157;SDS011;2598;52.364;9.772;2023-02-08T09:19:24;32.65;;;15.80;;
5157;SDS011;2598;52.364;9.772;2023-02-08T09:21:51;34.63;;;16.45;;
5157;SDS011;2598;52.364;9.772;2023-02-08T09:24:17;40.92;;;18.08;;
5157;SDS011;2598;52.364;9.772;2023-02-08T09:26:43;35.87;;;17.27;;
5157;SDS011;2598;52.364;9.772;2023-02-08T09:29:10;37.95;;;18.23;;
5157;SDS011;2598;52.364;9.772;2023-02-08T09:31:36;38.30;;;17.92;;
5157;SDS011;2598;52.364;9.772;2023-02-08T09:34:03;38.40;;;17.83;;
5157;SDS011;2598;52.364;9.772;2023-02-08T09:36:31;35.92;;;17.80;;
5157;SDS011;2598;52.364;9.772;2023-02-08T09:38:58;37.05;;;17.40;;
5157;SDS011;2598;52.364;9.772;2023-02-08T09:41:29;35.83;;;17.90;;
5157;SDS011;2598;52.364;9.772;2023-02-08T09:46:30;31.38;;;17.00;;
5157;SDS011;2598;52.364;9.772;2023-02-08T09:48:58;37.80;;;17.92;;
5157;SDS011;2598;52.364;9.772;2023-02-08T09:51:31;35.47;;;15.77;;
5157;SDS011;2598;52.364;9.772;2023-02-08T09:54:06;35.30;;;16.20;;
5157;SDS011;2598;52.364;9.772;2023-02-08T09:56:34;37.15;;;17.30;;
5157;SDS011;2598;52.364;9.772;2023-02-08T09:59:01;32.53;;;16.25;;
5157;SDS011;2598;52.364;9.772;2023-02-08T10:01:27;34.17;;;17.58;;
5157;SDS011;2598;52.364;9.772;2023-02-08T10:03:55;29.25;;;14.68;;
5157;SDS011;2598;52.364;9.772;2023-02-08T10:06:22;35.60;;;16.83;;
5157;SDS011;2598;52.364;9.772;2023-02-08T10:08:49;33.95;;;16.85;;
5157;SDS011;2598;52.364;9.772;2023-02-08T10:16:44;31.20;;;15.25;;
5157;SDS011;2598;52.364;9.772;2023-02-08T10:24:30;29.40;;;14.60;;
5157;SDS011;2598;52.364;9.772;2023-02-08T10:27:05;28.55;;;15.38;;
5157;SDS011;2598;52.364;9.772;2023-02-08T10:29:41;31.65;;;15.57;;
5157;SDS011;2598;52.364;9.772;2023-02-08T10:32:14;30.77;;;15.48;;
5157;SDS011;2598;52.364;9.772;2023-02-08T10:34:56;35.03;;;16.02;;
5157;SDS011;2598;52.364;9.772;2023-02-08T10:37:27;32.20;;;15.20;;
5157;SDS011;2598;52.364;9.772;2023-02-08T10:39:55;32.25;;;14.80;;
5157;SDS011;2598;52.364;9.772;2023-02-08T10:42:22;42.55;;;17.48;;
5157;SDS011;2598;52.364;9.772;2023-02-08T10:47:41;35.85;;;16.02;;
5157;SDS011;2598;52.364;9.772;2023-02-08T10:52:51;34.03;;;15.68;;
5157;SDS011;2598;52.364;9.772;2023-02-08T10:55:18;28.48;;;14.93;;
5157;SDS011;2598;52.364;9.772;2023-02-08T10:57:45;33.00;;;16.02;;
5157;SDS011;2598;52.364;9.772;2023-02-08T11:02:39;29.63;;;14.77;;
5157;SDS011;2598;52.364;9.772;2023-02-08T11:07:33;31.07;;;14.97;;
5157;SDS011;2598;52.364;9.772;2023-02-08T11:12:59;34.63;;;15.90;;
5157;SDS011;2598;52.364;9.772;2023-02-08T11:18:03;32.30;;;16.40;;
5157;SDS011;2598;52.364;9.772;2023-02-08T11:20:33;31.30;;;14.53;;
5157;SDS011;2598;52.364;9.772;2023-02-08T11:23:01;29.70;;;14.67;;
5157;SDS011;2598;52.364;9.772;2023-02-08T11:25:31;31.40;;;15.63;;
5157;SDS011;2598;52.364;9.772;2023-02-08T11:27:57;29.37;;;14.60;;
5157;SDS011;2598;52.364;9.772;2023-02-08T11:30:24;31.23;;;15.30;;
5157;SDS011;2598;52.364;9.772;2023-02-08T11:33:11;29.10;;;14.93;;
5157;SDS011;2598;52.364;9.772;2023-02-08T11:35:36;27.90;;;14.90;;
5157;SDS011;2598;52.364;9.772;2023-02-08T11:38:02;30.43;;;15.60;;
5157;SDS011;2598;52.364;9.772;2023-02-08T11:40:35;29.23;;;14.53;;
5157;SDS011;2598;52.364;9.772;2023-02-08T11:43:02;26.30;;;12.83;;
5157;SDS011;2598;52.364;9.772;2023-02-08T11:45:32;27.50;;;14.00;;
5157;SDS011;2598;52.364;9.772;2023-02-08T11:47:59;30.63;;;15.10;;
5157;SDS011;2598;52.364;9.772;2023-02-08T11:50:36;27.90;;;14.23;;
5157;SDS011;2598;52.364;9.772;2023-02-08T11:55:29;26.10;;;12.70;;
5157;SDS011;2598;52.364;9.772;2023-02-08T11:57:57;24.23;;;11.77;;
5157;SDS011;2598;52.364;9.772;2023-02-08T12:00:25;27.03;;;12.73;;
5157;SDS011;2598;52.364;9.772;2023-02-08T12:02:59;25.20;;;12.20;;
5157;SDS011;2598;52.364;9.772;2023-02-08T12:08:29;26.90;;;11.80;;
5157;SDS011;2598;52.364;9.772;2023-02-08T12:11:03;24.03;;;11.70;;
5157;SDS011;2598;52.364;9.772;2023-02-08T12:21:42;19.73;;;10.67;;
5157;SDS011;2598;52.364;9.772;2023-02-08T12:24:13;25.20;;;13.13;;
5157;SDS011;2598;52.364;9.772;2023-02-08T12:26:45;22.67;;;11.50;;
5157;SDS011;2598;52.364;9.772;2023-02-08T12:29:21;23.43;;;11.63;;
5157;SDS011;2598;52.364;9.772;2023-02-08T12:31:54;26.60;;;11.77;;
5157;SDS011;2598;52.364;9.772;2023-02-08T12:36:56;25.00;;;11.57;;
5157;SDS011;2598;52.364;9.772;2023-02-08T12:39:47;24.33;;;11.47;;
5157;SDS011;2598;52.364;9.772;2023-02-08T12:42:53;25.00;;;11.17;;
5157;SDS011;2598;52.364;9.772;2023-02-08T12:50:48;21.93;;;10.80;;
5157;SDS011;2598;52.364;9.772;2023-02-08T12:55:43;19.07;;;9.33;;
5157;SDS011;2598;52.364;9.772;2023-02-08T12:58:17;18.50;;;10.27;;
5157;SDS011;2598;52.364;9.772;2023-02-08T13:00:46;20.40;;;10.40;;
5157;SDS011;2598;52.364;9.772;2023-02-08T13:05:57;19.20;;;8.87;;
5157;SDS011;2598;52.364;9.772;2023-02-08T13:10:54;19.10;;;9.03;;
5157;SDS011;2598;52.364;9.772;2023-02-08T13:13:23;20.27;;;9.20;;
5157;SDS011;2598;52.364;9.772;2023-02-08T13:15:57;20.60;;;9.17;;
5157;SDS011;2598;52.364;9.772;2023-02-08T13:18:32;20.80;;;9.40;;
5157;SDS011;2598;52.364;9.772;2023-02-08T13:26:01;15.57;;;7.83;;
5157;SDS011;2598;52.364;9.772;2023-02-08T13:28:28;17.77;;;8.00;;
5157;SDS011;2598;52.364;9.772;2023-02-08T13:30:56;15.63;;;7.30;;
5157;SDS011;2598;52.364;9.772;2023-02-08T13:33:26;17.07;;;8.37;;
5157;SDS011;2598;52.364;9.772;2023-02-08T13:35:53;16.80;;;8.07;;
5157;SDS011;2598;52.364;9.772;2023-02-08T13:38:29;14.93;;;7.50;;
5157;SDS011;2598;52.364;9.772;2023-02-08T13:43:29;18.60;;;8.40;;
5157;SDS011;2598;52.364;9.772;2023-02-08T13:45:57;18.27;;;8.20;;
5157;SDS011;2598;52.364;9.772;2023-02-08T13:48:24;18.73;;;8.47;;
5157;SDS011;2598;52.364;9.772;2023-02-08T13:50:54;17.10;;;8.13;;
5157;SDS011;2598;52.364;9.772;2023-02-08T13:56:09;17.33;;;8.70;;
5157;SDS011;2598;52.364;9.772;2023-02-08T14:01:13;17.97;;;7.47;;
5157;SDS011;2598;52.364;9.772;2023-02-08T14:03:39;19.77;;;8.48;;
5157;SDS011;2598;52.364;9.772;2023-02-08T14:06:24;19.20;;;8.77;;
5157;SDS011;2598;52.364;9.772;2023-02-08T14:08:56;21.80;;;9.57;;
5157;SDS011;2598;52.364;9.772;2023-02-08T14:11:43;19.67;;;8.43;;
5157;SDS011;2598;52.364;9.772;2023-02-08T14:14:17;18.57;;;7.93;;
5157;SDS011;2598;52.364;9.772;2023-02-08T14:16:44;15.57;;;7.40;;
5157;SDS011;2598;52.364;9.772;2023-02-08T14:21:42;22.17;;;9.20;;
5157;SDS011;2598;52.364;9.772;2023-02-08T14:24:30;19.37;;;8.40;;
5157;SDS011;2598;52.364;9.772;2023-02-08T14:27:06;17.40;;;7.33;;
5157;SDS011;2598;52.364;9.772;2023-02-08T14:29:33;19.73;;;7.90;;
5157;SDS011;2598;52.364;9.772;2023-02-08T14:31:59;17.87;;;7.77;;
5157;SDS011;2598;52.364;9.772;2023-02-08T14:34:27;16.90;;;7.67;;
5157;SDS011;2598;52.364;9.772;2023-02-08T14:37:25;18.53;;;8.70;;
5157;SDS011;2598;52.364;9.772;2023-02-08T14:40:29;19.50;;;9.17;;
5157;SDS011;2598;52.364;9.772;2023-02-08T14:45:25;18.47;;;8.23;;
5157;SDS011;2598;52.364;9.772;2023-02-08T14:47:52;19.63;;;8.73;;
5157;SDS011;2598;52.364;9.772;2023-02-08T14:50:24;20.17;;;8.87;;
5157;SDS011;2598;52.364;9.772;2023-02-08T14:52:51;24.90;;;8.13;;
5157;SDS011;2598;52.364;9.772;2023-02-08T14:55:20;18.70;;;8.13;;
5157;SDS011;2598;52.364;9.772;2023-02-08T14:57:50;18.60;;;8.40;;
5157;SDS011;2598;52.364;9.772;2023-02-08T15:00:37;20.37;;;10.00;;
5157;SDS011;2598;52.364;9.772;2023-02-08T15:03:04;23.40;;;10.07;;
5157;SDS011;2598;52.364;9.772;2023-02-08T15:05:37;18.00;;;9.30;;
5157;SDS011;2598;52.364;9.772;2023-02-08T15:08:05;21.00;;;9.83;;
5157;SDS011;2598;52.364;9.772;2023-02-08T15:10:31;19.17;;;9.50;;
5157;SDS011;2598;52.364;9.772;2023-02-08T15:12:59;21.87;;;9.20;;
5157;SDS011;2598;52.364;9.772;2023-02-08T15:15:40;22.40;;;9.23;;
5157;SDS011;2598;52.364;9.772;2023-02-08T15:18:13;22.37;;;10.17;;
5157;SDS011;2598;52.364;9.772;2023-02-08T15:20:40;22.90;;;11.03;;
5157;SDS011;2598;52.364;9.772;2023-02-08T15:23:20;22.17;;;11.30;;
5157;SDS011;2598;52.364;9.772;2023-02-08T15:26:32;27.07;;;11.93;;
5157;SDS011;2598;52.364;9.772;2023-02-08T15:28:33;19.70;;;9.40;;
5157;SDS011;2598;52.364;9.772;2023-02-08T15:31:04;18.73;;;8.00;;
5157;SDS011;2598;52.364;9.772;2023-02-08T15:33:31;22.33;;;9.47;;
5157;SDS011;2598;52.364;9.772;2023-02-08T15:35:59;17.33;;;8.27;;
5157;SDS011;2598;52.364;9.772;2023-02-08T15:38:25;20.13;;;8.77;;
5157;SDS011;2598;52.364;9.772;2023-02-08T15:41:05;23.00;;;8.70;;
5157;SDS011;2598;52.364;9.772;2023-02-08T15:43:32;20.63;;;9.37;;
5157;SDS011;2598;52.364;9.772;2023-02-08T15:45:59;19.27;;;8.50;;
5157;SDS011;2598;52.364;9.772;2023-02-08T15:48:26;21.23;;;9.60;;
5157;SDS011;2598;52.364;9.772;2023-02-08T15:50:52;24.33;;;9.63;;
5157;SDS011;2598;52.364;9.772;2023-02-08T15:53:19;24.47;;;9.93;;
5157;SDS011;2598;52.364;9.772;2023-02-08T15:55:46;23.97;;;10.37;;
5157;SDS011;2598;52.364;9.772;2023-02-08T15:58:15;22.33;;;9.13;;
5157;SDS011;2598;52.364;9.772;2023-02-08T16:00:42;25.92;;;11.68;;
5157;SDS011;2598;52.364;9.772;2023-02-08T16:03:19;25.43;;;11.20;;
5157;SDS011;2598;52.364;9.772;2023-02-08T16:05:49;25.17;;;11.60;;
5157;SDS011;2598;52.364;9.772;2023-02-08T16:08:19;28.07;;;12.03;;
5157;SDS011;2598;52.364;9.772;2023-02-08T16:10:47;25.80;;;11.23;;
5157;SDS011;2598;52.364;9.772;2023-02-08T16:13:15;28.90;;;11.70;;
5157;SDS011;2598;52.364;9.772;2023-02-08T16:15:43;30.83;;;12.23;;
5157;SDS011;2598;52.364;9.772;2023-02-08T16:20:55;27.70;;;12.33;;
5157;SDS011;2598;52.364;9.772;2023-02-08T16:23:25;33.97;;;13.70;;
5157;SDS011;2598;52.364;9.772;2023-02-08T16:25:52;28.80;;;13.20;;
5157;SDS011;2598;52.364;9.772;2023-02-08T16:28:21;28.10;;;14.00;;
5157;SDS011;2598;52.364;9.772;2023-02-08T16:30:49;34.87;;;14.47;;
5157;SDS011;2598;52.364;9.772;2023-02-08T16:33:15;29.80;;;15.30;;
5157;SDS011;2598;52.364;9.772;2023-02-08T16:35:41;31.50;;;13.90;;